createdAt,value
2018-09-11T00:01:33.679Z,99.90
2018-09-11T00:04:01.351Z,99.90
2018-09-11T00:06:28.927Z,99.90
2018-09-11T00:08:56.924Z,99.90
2018-09-11T00:11:25.004Z,99.90
2018-09-11T00:13:52.994Z,99.90
2018-09-11T00:16:20.615Z,99.90
2018-09-11T00:18:48.413Z,99.90
2018-09-11T00:21:16.318Z,99.90
2018-09-11T00:23:44.368Z,99.90
2018-09-11T00:26:12.143Z,99.90
2018-09-11T00:28:39.963Z,99.90
2018-09-11T00:31:07.738Z,99.90
2018-09-11T00:33:35.427Z,99.90
2018-09-11T00:36:03.728Z,99.90
2018-09-11T00:38:31.360Z,99.90
2018-09-11T00:41:00.023Z,99.90
2018-09-11T00:43:28.505Z,99.90
2018-09-11T00:45:56.147Z,99.90
2018-09-11T00:48:23.674Z,99.90
2018-09-11T00:50:51.451Z,99.90
2018-09-11T00:53:19.306Z,99.90
2018-09-11T00:55:47.459Z,99.90
2018-09-11T00:58:15.038Z,99.90
2018-09-11T01:00:42.903Z,99.90
2018-09-11T01:03:10.470Z,99.90
2018-09-11T01:05:38.205Z,99.90
2018-09-11T01:08:06.063Z,99.90
2018-09-11T01:10:33.754Z,99.90
2018-09-11T01:13:01.332Z,99.90
2018-09-11T01:15:29.590Z,99.90
2018-09-11T01:17:57.419Z,99.90
2018-09-11T01:20:25.085Z,99.90
2018-09-11T01:22:52.736Z,99.90
2018-09-11T01:25:20.403Z,99.90
2018-09-11T01:27:48.888Z,99.90
2018-09-11T01:30:18.908Z,99.90
2018-09-11T01:32:47.669Z,99.90
2018-09-11T01:35:15.436Z,99.90
2018-09-11T01:37:43.056Z,99.90
2018-09-11T01:40:10.673Z,99.90
2018-09-11T01:42:38.295Z,99.90
2018-09-11T01:45:06.067Z,99.90
2018-09-11T01:47:33.767Z,99.90
2018-09-11T01:50:01.475Z,99.90
2018-09-11T01:52:29.292Z,99.90
2018-09-11T01:54:56.919Z,99.90
2018-09-11T01:57:24.829Z,99.90
2018-09-11T01:59:52.671Z,99.90
2018-09-11T02:02:20.681Z,99.90
2018-09-11T02:04:48.316Z,99.90
2018-09-11T02:07:15.979Z,99.90
2018-09-11T02:09:43.617Z,99.90
2018-09-11T02:12:11.387Z,99.90
2018-09-11T02:14:39.063Z,99.90
2018-09-11T02:17:06.782Z,99.90
2018-09-11T02:19:34.493Z,99.90
2018-09-11T02:22:02.527Z,99.90
2018-09-11T02:24:30.803Z,99.90
2018-09-11T02:26:58.327Z,99.90
2018-09-11T02:29:26.126Z,99.90
2018-09-11T02:31:54.591Z,99.90
2018-09-11T02:34:22.323Z,99.90
2018-09-11T02:36:50.163Z,99.90
2018-09-11T02:39:17.935Z,99.90
2018-09-11T02:41:45.801Z,99.90
2018-09-11T02:44:13.532Z,99.90
2018-09-11T02:46:41.868Z,99.90
2018-09-11T02:49:09.452Z,99.90
2018-09-11T02:51:37.386Z,99.90
2018-09-11T02:54:04.988Z,99.90
2018-09-11T02:56:32.796Z,99.90
2018-09-11T02:59:00.483Z,99.90
2018-09-11T03:01:28.159Z,99.90
2018-09-11T03:03:55.947Z,99.90
2018-09-11T03:06:23.707Z,99.90
2018-09-11T03:08:51.587Z,99.90
2018-09-11T03:11:19.499Z,99.90
2018-09-11T03:13:48.107Z,99.90
2018-09-11T03:16:16.011Z,99.90
2018-09-11T03:18:43.741Z,99.90
2018-09-11T03:21:11.559Z,99.90
2018-09-11T03:23:40.111Z,99.90
2018-09-11T03:26:07.712Z,99.90
2018-09-11T03:28:35.655Z,99.90
2018-09-11T03:31:03.615Z,99.90
2018-09-11T03:33:31.596Z,99.90
2018-09-11T03:35:59.259Z,99.90
2018-09-11T03:38:27.045Z,99.90
2018-09-11T03:40:54.746Z,99.90
2018-09-11T03:43:22.919Z,99.90
2018-09-11T03:45:50.827Z,99.90
2018-09-11T03:48:19.847Z,99.90
2018-09-11T03:50:48.818Z,99.90
2018-09-11T03:53:16.851Z,99.90
2018-09-11T03:55:44.771Z,99.90
2018-09-11T03:58:13.062Z,99.90
2018-09-11T04:00:40.796Z,99.90
2018-09-11T04:03:08.416Z,99.90
2018-09-11T04:05:36.393Z,99.90
2018-09-11T04:08:04.011Z,99.90
2018-09-11T04:10:31.759Z,99.90
2018-09-11T04:12:59.443Z,99.90
2018-09-11T04:15:27.043Z,99.90
2018-09-11T04:17:54.769Z,99.90
2018-09-11T04:20:22.704Z,99.90
2018-09-11T04:22:50.378Z,99.90
2018-09-11T04:25:18.121Z,99.90
2018-09-11T04:27:45.736Z,99.90
2018-09-11T04:30:13.430Z,99.90
2018-09-11T04:32:41.160Z,99.90
2018-09-11T04:35:08.776Z,99.90
2018-09-11T04:37:36.440Z,99.90
2018-09-11T04:40:04.836Z,99.90
2018-09-11T04:42:32.699Z,99.90
2018-09-11T04:45:00.568Z,99.90
2018-09-11T04:47:28.216Z,99.90
2018-09-11T04:49:55.750Z,99.90
2018-09-11T04:52:24.673Z,99.90
2018-09-11T04:54:52.639Z,99.90
2018-09-11T04:57:20.300Z,99.90
2018-09-11T04:59:47.987Z,99.90
2018-09-11T05:02:15.517Z,99.90
2018-09-11T05:04:43.201Z,99.90
2018-09-11T05:07:10.856Z,99.90
2018-09-11T05:09:38.575Z,99.90
2018-09-11T05:12:06.280Z,99.90
2018-09-11T05:14:33.979Z,99.90
2018-09-11T05:17:01.724Z,99.90
2018-09-11T05:19:29.561Z,99.90
2018-09-11T05:21:57.267Z,99.90
2018-09-11T05:24:24.943Z,99.90
2018-09-11T05:26:52.603Z,99.90
2018-09-11T05:29:20.180Z,99.90
2018-09-11T05:31:47.822Z,99.90
2018-09-11T05:34:15.515Z,99.90
2018-09-11T05:36:43.047Z,99.90
2018-09-11T05:39:10.800Z,99.90
2018-09-11T05:41:38.494Z,99.90
2018-09-11T05:44:06.827Z,99.90
2018-09-11T05:46:34.583Z,99.90
2018-09-11T05:49:02.547Z,99.90
2018-09-11T05:51:30.487Z,99.90
2018-09-11T05:53:58.515Z,99.90
2018-09-11T05:56:26.055Z,99.90
2018-09-11T05:58:54.067Z,99.90
2018-09-11T06:01:22.410Z,99.90
2018-09-11T06:03:50.123Z,99.90
2018-09-11T06:06:17.738Z,99.90
2018-09-11T06:08:46.168Z,99.90
2018-09-11T06:11:13.807Z,99.90
2018-09-11T06:13:41.609Z,99.90
2018-09-11T06:16:09.255Z,99.90
2018-09-11T06:18:37.212Z,99.90
2018-09-11T06:21:05.360Z,99.90
2018-09-11T06:23:33.086Z,99.90
2018-09-11T06:26:00.702Z,99.90
2018-09-11T06:28:28.481Z,99.90
2018-09-11T06:30:56.355Z,99.90
2018-09-11T06:33:23.919Z,99.90
2018-09-11T06:35:51.842Z,99.90
2018-09-11T06:38:19.679Z,99.90
2018-09-11T06:40:47.414Z,99.90
2018-09-11T06:43:15.284Z,99.90
2018-09-11T06:45:43.043Z,99.90
2018-09-11T06:48:10.703Z,99.90
2018-09-11T06:50:38.295Z,99.90
2018-09-11T06:53:06.315Z,99.90
2018-09-11T06:55:34.187Z,99.90
2018-09-11T06:58:01.827Z,99.90
2018-09-11T07:00:29.641Z,99.90
2018-09-11T07:02:57.343Z,99.90
2018-09-11T07:05:24.934Z,99.90
2018-09-11T07:07:52.795Z,99.90
2018-09-11T07:10:20.456Z,99.90
2018-09-11T07:12:48.220Z,99.90
2018-09-11T07:15:15.890Z,99.90
2018-09-11T07:17:43.520Z,99.90
2018-09-11T07:20:11.598Z,99.90
2018-09-11T07:22:38.902Z,99.90
2018-09-11T07:25:06.667Z,99.90
2018-09-11T07:27:34.268Z,99.90
2018-09-11T07:30:01.891Z,99.90
2018-09-11T07:32:30.169Z,99.90
2018-09-11T07:34:57.946Z,99.90
2018-09-11T07:37:25.571Z,99.90
2018-09-11T07:39:53.475Z,99.90
2018-09-11T07:42:21.329Z,99.90
2018-09-11T07:44:49.019Z,99.90
2018-09-11T07:47:16.715Z,99.90
2018-09-11T07:49:44.473Z,99.90
2018-09-11T07:52:12.071Z,99.90
2018-09-11T07:54:39.771Z,99.90
2018-09-11T07:57:07.574Z,99.90
2018-09-11T07:59:35.172Z,99.90
2018-09-11T08:02:02.903Z,99.90
2018-09-11T08:04:30.764Z,99.90
2018-09-11T08:06:59.024Z,99.90
2018-09-11T08:09:26.772Z,99.90
2018-09-11T08:11:54.558Z,99.90
2018-09-11T08:14:23.136Z,99.90
2018-09-11T08:16:50.796Z,99.90
2018-09-11T08:19:18.677Z,99.90
2018-09-11T08:21:46.372Z,99.90
2018-09-11T08:24:13.981Z,99.90
2018-09-11T08:26:41.537Z,99.90
2018-09-11T08:29:09.304Z,99.90
2018-09-11T08:31:36.856Z,99.90
2018-09-11T08:34:04.730Z,99.90
2018-09-11T08:36:32.349Z,99.90
2018-09-11T08:38:59.939Z,99.90
2018-09-11T08:41:27.640Z,99.90
2018-09-11T08:43:55.295Z,99.90
2018-09-11T08:46:23.000Z,99.90
2018-09-11T08:48:50.672Z,99.90
2018-09-11T08:51:18.219Z,99.90
2018-09-11T08:53:46.028Z,99.90
2018-09-11T08:56:13.711Z,99.90
2018-09-11T08:58:41.533Z,99.90
2018-09-11T09:01:09.235Z,99.90
2018-09-11T09:03:37.421Z,99.90
2018-09-11T09:06:05.332Z,99.90
2018-09-11T09:08:33.040Z,99.90
2018-09-11T09:11:00.696Z,99.60
2018-09-11T09:13:28.299Z,99.60
2018-09-11T09:15:56.000Z,99.00
2018-09-11T09:18:23.895Z,98.40
2018-09-11T09:20:51.457Z,97.40
2018-09-11T09:23:19.477Z,98.50
2018-09-11T09:25:47.284Z,97.00
2018-09-11T09:28:15.006Z,96.40
2018-09-11T09:30:43.202Z,96.70
2018-09-11T09:33:11.020Z,96.50
2018-09-11T09:35:38.583Z,97.00
2018-09-11T09:38:06.187Z,96.50
2018-09-11T09:40:33.838Z,94.40
2018-09-11T09:43:01.379Z,94.00
2018-09-11T09:45:29.161Z,94.80
2018-09-11T09:47:56.951Z,93.90
2018-09-11T09:50:25.424Z,92.30
2018-09-11T09:52:53.103Z,92.40
2018-09-11T09:55:20.743Z,91.70
2018-09-11T09:57:48.559Z,93.40
2018-09-11T10:00:21.839Z,92.50
2018-09-11T10:02:49.613Z,92.60
2018-09-11T10:05:17.328Z,91.60
2018-09-11T10:07:44.897Z,90.80
2018-09-11T10:10:13.204Z,87.20
2018-09-11T10:12:40.783Z,85.60
2018-09-11T10:15:09.940Z,83.30
2018-09-11T10:17:37.614Z,80.80
2018-09-11T10:20:05.967Z,82.40
2018-09-11T10:22:33.607Z,81.10
2018-09-11T10:27:21.090Z,79.80
2018-09-11T10:29:48.737Z,80.00
2018-09-11T10:32:16.320Z,80.30
2018-09-11T10:34:44.069Z,80.10
2018-09-11T10:37:11.703Z,81.30
2018-09-11T10:39:39.288Z,80.80
2018-09-11T10:42:07.028Z,79.10
2018-09-11T10:44:34.955Z,79.90
2018-09-11T10:47:02.615Z,77.50
2018-09-11T10:49:30.364Z,77.80
2018-09-11T10:51:58.121Z,78.40
2018-09-11T10:54:26.411Z,77.70
2018-09-11T10:56:54.066Z,77.90
2018-09-11T10:59:21.843Z,78.70
2018-09-11T11:01:49.617Z,79.30
2018-09-11T11:04:17.518Z,79.20
2018-09-11T11:06:45.256Z,77.10
2018-09-11T11:09:12.886Z,76.70
2018-09-11T11:11:40.838Z,76.10
2018-09-11T11:14:08.968Z,74.60
2018-09-11T11:16:36.872Z,73.40
2018-09-11T11:19:04.819Z,74.70
2018-09-11T11:21:32.562Z,75.10
2018-09-11T11:24:00.262Z,76.10
2018-09-11T11:26:28.128Z,76.10
2018-09-11T11:28:55.863Z,78.90
2018-09-11T11:31:23.440Z,77.80
2018-09-11T11:33:51.667Z,76.70
2018-09-11T11:36:19.620Z,75.90
2018-09-11T11:38:47.168Z,76.50
2018-09-11T11:41:14.813Z,77.40
2018-09-11T11:43:42.827Z,78.10
2018-09-11T11:46:10.472Z,76.40
2018-09-11T11:48:38.164Z,76.20
2018-09-11T11:51:05.923Z,76.00
2018-09-11T11:53:34.320Z,75.90
2018-09-11T11:56:02.159Z,76.20
2018-09-11T11:58:29.823Z,76.10
2018-09-11T12:00:57.479Z,75.60
2018-09-11T12:03:25.277Z,75.70
2018-09-11T12:05:53.194Z,74.80
2018-09-11T12:08:20.792Z,73.40
2018-09-11T12:10:48.631Z,71.80
2018-09-11T12:13:17.015Z,71.90
2018-09-11T12:15:44.653Z,71.70
2018-09-11T12:18:12.410Z,72.10
2018-09-11T12:20:40.160Z,72.80
2018-09-11T12:23:07.907Z,72.80
2018-09-11T12:25:36.722Z,73.10
2018-09-11T12:28:04.413Z,71.40
2018-09-11T12:30:32.225Z,71.50
2018-09-11T12:33:00.351Z,71.60
2018-09-11T12:35:28.651Z,72.60
2018-09-11T12:37:56.271Z,71.70
2018-09-11T12:40:24.784Z,68.80
2018-09-11T12:42:52.519Z,69.50
2018-09-11T12:45:20.083Z,69.00
2018-09-11T12:47:48.070Z,68.90
2018-09-11T12:50:15.790Z,69.40
2018-09-11T12:52:43.659Z,71.80
2018-09-11T12:55:12.222Z,72.00
2018-09-11T12:57:39.967Z,71.40
2018-09-11T13:00:08.556Z,71.30
2018-09-11T13:02:36.926Z,71.30
2018-09-11T13:05:05.208Z,71.20
2018-09-11T13:07:33.113Z,71.80
2018-09-11T13:10:00.990Z,73.90
2018-09-11T13:12:28.780Z,72.10
2018-09-11T13:14:56.848Z,71.90
2018-09-11T13:17:25.289Z,72.20
2018-09-11T13:19:53.154Z,71.00
2018-09-11T13:22:21.015Z,71.20
2018-09-11T13:24:48.688Z,73.40
2018-09-11T13:27:16.463Z,69.70
2018-09-11T13:29:44.263Z,70.50
2018-09-11T13:32:11.947Z,68.20
2018-09-11T13:34:39.680Z,66.30
2018-09-11T13:37:07.279Z,68.40
2018-09-11T13:39:35.071Z,71.80
2018-09-11T13:42:02.897Z,72.10
2018-09-11T13:44:30.673Z,69.50
2018-09-11T13:46:58.420Z,70.60
2018-09-11T13:49:26.699Z,72.80
2018-09-11T13:51:54.429Z,74.70
2018-09-11T13:54:22.040Z,73.10
2018-09-11T13:56:49.764Z,73.60
2018-09-11T13:59:17.705Z,75.20
2018-09-11T14:01:45.372Z,74.20
2018-09-11T14:04:13.902Z,74.60
2018-09-11T14:06:41.707Z,77.20
2018-09-11T14:09:13.070Z,76.90
2018-09-11T14:11:41.392Z,77.50
2018-09-11T14:14:09.537Z,76.30
2018-09-11T14:16:37.299Z,74.50
2018-09-11T14:19:05.415Z,75.90
2018-09-11T14:21:33.362Z,73.50
2018-09-11T14:24:02.173Z,73.50
2018-09-11T14:26:30.317Z,72.80
2018-09-11T14:28:57.920Z,75.50
2018-09-11T14:31:26.392Z,75.90
2018-09-11T14:33:54.340Z,75.70
2018-09-11T14:36:21.944Z,75.30
2018-09-11T14:38:49.545Z,75.90
2018-09-11T14:41:17.263Z,74.40
2018-09-11T14:43:45.033Z,74.40
2018-09-11T14:46:12.794Z,76.10
2018-09-11T14:48:40.459Z,76.30
2018-09-11T14:51:08.188Z,75.10
2018-09-11T14:53:36.111Z,75.20
2018-09-11T14:56:03.933Z,74.40
2018-09-11T14:58:32.832Z,75.30
2018-09-11T15:01:00.420Z,74.60
2018-09-11T15:03:28.096Z,75.20
2018-09-11T15:05:56.008Z,74.30
2018-09-11T15:08:23.548Z,75.30
2018-09-11T15:10:51.316Z,75.80
2018-09-11T15:13:19.339Z,75.50
2018-09-11T15:15:47.520Z,73.70
2018-09-11T15:18:15.389Z,71.80
2018-09-11T15:20:43.158Z,72.20
2018-09-11T15:23:11.233Z,70.60
2018-09-11T15:25:39.148Z,67.90
2018-09-11T15:28:06.723Z,65.90
2018-09-11T15:30:34.351Z,67.80
2018-09-11T15:33:02.828Z,63.60
2018-09-11T15:35:30.578Z,62.80
2018-09-11T15:37:58.748Z,62.30
2018-09-11T15:40:26.440Z,59.30
2018-09-11T15:42:54.048Z,63.80
2018-09-11T15:45:21.911Z,60.30
2018-09-11T15:47:49.716Z,58.40
2018-09-11T15:50:18.235Z,58.80
2018-09-11T15:52:45.873Z,59.00
2018-09-11T15:55:13.597Z,59.90
2018-09-11T15:57:41.912Z,64.60
2018-09-11T16:00:11.600Z,60.10
2018-09-11T16:02:39.267Z,59.40
2018-09-11T16:05:07.145Z,59.30
2018-09-11T16:07:34.723Z,58.30
2018-09-11T16:10:02.464Z,56.70
2018-09-11T16:12:30.101Z,57.40
2018-09-11T16:14:57.868Z,57.30
2018-09-11T16:17:25.543Z,59.00
2018-09-11T16:19:53.339Z,57.70
2018-09-11T16:22:20.962Z,59.60
2018-09-11T16:24:48.699Z,60.30
2018-09-11T16:27:16.500Z,64.30
2018-09-11T16:29:44.322Z,65.30
2018-09-11T16:32:12.403Z,66.20
2018-09-11T16:34:40.245Z,68.60
2018-09-11T16:37:07.875Z,68.60
2018-09-11T16:39:35.672Z,70.20
2018-09-11T16:42:03.378Z,73.50
2018-09-11T16:44:31.699Z,71.70
2018-09-11T16:46:59.454Z,75.70
2018-09-11T16:49:27.131Z,78.30
2018-09-11T16:51:54.788Z,73.60
2018-09-11T16:54:23.357Z,74.20
2018-09-11T16:56:51.587Z,72.90
2018-09-11T16:59:19.349Z,75.20
2018-09-11T17:01:47.081Z,76.50
2018-09-11T17:04:14.764Z,78.80
2018-09-11T17:06:42.535Z,80.50
2018-09-11T17:09:10.566Z,78.00
2018-09-11T17:11:39.121Z,79.60
2018-09-11T17:14:06.975Z,83.30
2018-09-11T17:16:34.641Z,84.70
2018-09-11T17:19:02.386Z,87.20
2018-09-11T17:21:30.872Z,87.10
2018-09-11T17:23:58.431Z,88.60
2018-09-11T17:26:26.266Z,89.20
2018-09-11T17:28:54.248Z,89.40
2018-09-11T17:31:22.203Z,90.50
2018-09-11T17:33:50.158Z,91.00
2018-09-11T17:36:17.963Z,91.00
2018-09-11T17:38:45.589Z,91.10
2018-09-11T17:41:13.372Z,91.50
2018-09-11T17:43:41.145Z,92.10
2018-09-11T17:46:09.671Z,93.20
2018-09-11T17:48:37.463Z,93.40
2018-09-11T17:51:05.463Z,93.50
2018-09-11T17:53:34.771Z,94.20
2018-09-11T17:56:02.470Z,94.60
2018-09-11T17:58:30.872Z,95.60
2018-09-11T18:00:58.780Z,97.00
2018-09-11T18:03:26.712Z,97.90
2018-09-11T18:05:54.755Z,98.70
2018-09-11T18:08:22.532Z,99.70
2018-09-11T18:10:50.352Z,99.90
2018-09-11T18:13:19.002Z,99.90
2018-09-11T18:15:47.660Z,99.90
2018-09-11T18:18:15.424Z,99.90
2018-09-11T18:20:43.232Z,99.90
2018-09-11T18:23:11.083Z,99.90
2018-09-11T18:25:38.831Z,99.90
2018-09-11T18:28:06.591Z,99.90
2018-09-11T18:30:34.189Z,99.90
2018-09-11T18:33:02.702Z,99.90
2018-09-11T18:35:30.371Z,99.90
2018-09-11T18:37:57.953Z,99.90
2018-09-11T18:40:25.937Z,99.90
2018-09-11T18:42:53.952Z,99.90
2018-09-11T18:45:22.267Z,99.90
2018-09-11T18:47:50.833Z,99.90
2018-09-11T18:50:19.161Z,99.90
2018-09-11T18:52:47.875Z,99.90
2018-09-11T18:55:15.682Z,99.90
2018-09-11T18:57:43.678Z,99.90
2018-09-11T19:00:11.803Z,99.90
2018-09-11T19:02:39.523Z,99.90
2018-09-11T19:05:08.199Z,99.90
2018-09-11T19:07:35.846Z,99.90
2018-09-11T19:10:03.569Z,99.90
2018-09-11T19:12:31.431Z,99.90
2018-09-11T19:14:59.156Z,99.90
2018-09-11T19:17:27.015Z,99.90
2018-09-11T19:19:54.906Z,99.90
2018-09-11T19:22:22.571Z,99.90
2018-09-11T19:24:50.351Z,99.90
2018-09-11T19:27:17.949Z,99.90
2018-09-11T19:29:45.615Z,99.90
2018-09-11T19:32:14.028Z,99.90
2018-09-11T19:34:42.053Z,99.90
2018-09-11T19:37:09.732Z,99.90
2018-09-11T19:39:37.632Z,99.90
2018-09-11T19:42:05.480Z,99.90
2018-09-11T19:44:33.100Z,99.90
2018-09-11T19:47:00.832Z,99.90
2018-09-11T19:49:28.495Z,99.90
2018-09-11T19:51:57.171Z,99.90
2018-09-11T19:54:24.752Z,99.90
2018-09-11T19:56:52.356Z,99.90
2018-09-11T19:59:20.208Z,99.90
2018-09-11T20:01:48.610Z,99.90
2018-09-11T20:04:16.940Z,99.90
2018-09-11T20:06:44.776Z,99.90
2018-09-11T20:09:13.311Z,99.90
2018-09-11T20:11:41.220Z,99.90
2018-09-11T20:14:10.300Z,99.90
2018-09-11T20:16:38.166Z,99.90
2018-09-11T20:19:06.676Z,99.90
2018-09-11T20:21:34.717Z,99.90
2018-09-11T20:24:02.467Z,99.90
2018-09-11T20:26:30.936Z,99.90
2018-09-11T20:28:58.603Z,99.90
2018-09-11T20:31:26.204Z,99.90
2018-09-11T20:33:54.033Z,99.90
2018-09-11T20:36:22.007Z,99.90
2018-09-11T20:38:50.254Z,99.90
2018-09-11T20:41:17.852Z,99.90
2018-09-11T20:43:45.623Z,99.90
2018-09-11T20:46:13.680Z,99.90
2018-09-11T20:48:41.299Z,99.90
2018-09-11T20:51:08.959Z,99.90
2018-09-11T20:53:36.827Z,99.90
2018-09-11T20:56:04.734Z,99.90
2018-09-11T20:58:32.378Z,99.90
2018-09-11T21:01:00.366Z,99.90
2018-09-11T21:03:29.131Z,99.90
2018-09-11T21:05:56.824Z,99.90
2018-09-11T21:08:24.380Z,99.90
2018-09-11T21:10:52.163Z,99.90
2018-09-11T21:13:20.306Z,99.90
2018-09-11T21:15:47.836Z,99.90
2018-09-11T21:18:16.774Z,99.90
2018-09-11T21:20:44.550Z,99.90
2018-09-11T21:23:12.873Z,99.90
2018-09-11T21:25:40.446Z,99.90
2018-09-11T21:28:08.337Z,99.90
2018-09-11T21:30:36.015Z,99.90
2018-09-11T21:33:03.754Z,99.90
2018-09-11T21:35:32.222Z,99.90
2018-09-11T21:38:00.468Z,99.90
2018-09-11T21:40:28.204Z,99.90
2018-09-11T21:42:56.067Z,99.90
2018-09-11T21:45:23.843Z,99.90
2018-09-11T21:47:52.058Z,99.90
2018-09-11T21:50:19.858Z,99.90
2018-09-11T21:52:47.548Z,99.90
2018-09-11T21:55:15.079Z,99.90
2018-09-11T21:57:42.675Z,99.90
2018-09-11T22:00:11.753Z,99.90
2018-09-11T22:02:39.679Z,99.90
2018-09-11T22:05:07.923Z,99.90
2018-09-11T22:07:35.539Z,99.90
2018-09-11T22:10:03.656Z,99.90
2018-09-11T22:12:31.771Z,99.90
2018-09-11T22:14:59.537Z,99.90
2018-09-11T22:17:27.419Z,99.90
2018-09-11T22:19:55.143Z,99.90
2018-09-11T22:22:22.803Z,99.90
2018-09-11T22:24:51.145Z,99.90
2018-09-11T22:27:19.739Z,99.90
2018-09-11T22:29:47.656Z,99.90
2018-09-11T22:32:15.307Z,99.90
2018-09-11T22:34:42.971Z,99.90
2018-09-11T22:37:10.558Z,99.90
2018-09-11T22:39:38.363Z,99.90
2018-09-11T22:42:06.267Z,99.90
2018-09-11T22:44:34.157Z,99.90
2018-09-11T22:47:02.363Z,99.90
2018-09-11T22:49:29.911Z,99.90
2018-09-11T22:51:58.324Z,99.90
2018-09-11T22:54:25.888Z,99.90
2018-09-11T22:56:53.592Z,99.90
2018-09-11T22:59:21.574Z,99.90
2018-09-11T23:01:49.343Z,99.90
2018-09-11T23:04:16.903Z,99.90
2018-09-11T23:06:45.301Z,99.90
2018-09-11T23:09:12.836Z,99.90
2018-09-11T23:11:40.798Z,99.90
2018-09-11T23:14:08.471Z,99.90
2018-09-11T23:16:36.276Z,99.90
2018-09-11T23:19:04.852Z,99.90
2018-09-11T23:21:32.822Z,99.90
2018-09-11T23:24:00.782Z,99.90
2018-09-11T23:26:28.576Z,99.90
2018-09-11T23:28:56.331Z,99.90
2018-09-11T23:31:24.031Z,99.90
2018-09-11T23:33:52.167Z,99.90
2018-09-11T23:36:19.792Z,99.90
2018-09-11T23:38:47.495Z,99.90
2018-09-11T23:41:15.414Z,99.90
2018-09-11T23:43:44.057Z,99.90
2018-09-11T23:46:11.885Z,99.90
2018-09-11T23:48:39.562Z,99.90
2018-09-11T23:51:07.396Z,99.90
2018-09-11T23:53:35.085Z,99.90
2018-09-11T23:56:02.660Z,99.90
2018-09-11T23:58:30.263Z,99.90
